createdAt,value
2023-03-07T00:01:45.718Z,37.45
2023-03-07T00:04:12.355Z,33.08
2023-03-07T00:06:39.031Z,34.30
2023-03-07T00:09:05.868Z,34.80
2023-03-07T00:11:32.467Z,37.33
2023-03-07T00:13:59.102Z,37.47
2023-03-07T00:16:26.013Z,34.40
2023-03-07T00:18:52.666Z,32.83
2023-03-07T00:21:20.687Z,36.88
2023-03-07T00:23:47.341Z,36.17
2023-03-07T00:26:16.263Z,34.25
2023-03-07T00:28:43.037Z,37.67
2023-03-07T00:31:10.671Z,40.30
2023-03-07T00:33:37.492Z,35.58
2023-03-07T00:36:22.758Z,34.53
2023-03-07T00:38:49.623Z,37.30
2023-03-07T00:41:24.272Z,39.65
2023-03-07T00:43:51.047Z,34.40
2023-03-07T00:46:18.977Z,35.30
2023-03-07T00:48:45.610Z,35.83
2023-03-07T00:51:13.546Z,38.65
2023-03-07T00:53:40.496Z,38.03
2023-03-07T00:56:14.756Z,38.05
2023-03-07T00:58:41.461Z,35.58
2023-03-07T01:01:09.741Z,35.10
2023-03-07T01:03:37.254Z,39.47
2023-03-07T01:06:05.292Z,36.53
2023-03-07T01:08:31.917Z,36.22
2023-03-07T01:11:02.823Z,38.38
2023-03-07T01:13:29.771Z,38.97
2023-03-07T01:15:56.732Z,38.80
2023-03-07T01:18:23.387Z,35.20
2023-03-07T01:20:49.978Z,35.17
2023-03-07T01:23:16.818Z,34.20
2023-03-07T01:25:43.500Z,39.70
2023-03-07T01:28:12.692Z,39.58
2023-03-07T01:30:39.340Z,39.90
2023-03-07T01:33:05.974Z,36.47
2023-03-07T01:35:42.173Z,38.20
2023-03-07T01:38:09.227Z,38.40
2023-03-07T01:40:36.423Z,33.78
2023-03-07T01:43:26.672Z,34.42
2023-03-07T01:46:15.108Z,38.70
2023-03-07T01:48:41.770Z,39.42
2023-03-07T01:51:08.379Z,39.05
2023-03-07T01:53:35.008Z,43.28
2023-03-07T01:56:01.601Z,41.60
2023-03-07T01:58:28.295Z,44.83
2023-03-07T02:00:55.853Z,43.47
2023-03-07T02:03:39.342Z,38.05
2023-03-07T02:06:09.674Z,38.65
2023-03-07T02:08:36.395Z,43.15
2023-03-07T02:11:03.167Z,42.33
2023-03-07T02:13:29.763Z,41.08
2023-03-07T02:15:56.721Z,48.00
2023-03-07T02:18:27.317Z,45.58
2023-03-07T02:20:57.147Z,44.95
2023-03-07T02:23:39.167Z,49.67
2023-03-07T02:26:30.997Z,41.85
2023-03-07T02:28:58.687Z,45.72
2023-03-07T02:31:25.483Z,43.85
2023-03-07T02:33:52.152Z,41.22
2023-03-07T02:36:24.264Z,41.55
2023-03-07T02:38:51.387Z,46.03
2023-03-07T02:41:20.515Z,46.80
2023-03-07T02:43:47.154Z,46.55
2023-03-07T02:46:13.947Z,48.80
2023-03-07T02:48:40.578Z,46.85
2023-03-07T02:51:07.252Z,44.75
2023-03-07T02:53:34.245Z,45.33
2023-03-07T02:56:01.004Z,45.90
2023-03-07T02:58:27.644Z,44.90
2023-03-07T03:00:54.268Z,44.72
2023-03-07T03:03:21.052Z,47.30
2023-03-07T03:05:50.842Z,50.65
2023-03-07T03:08:17.729Z,47.08
2023-03-07T03:10:44.348Z,45.45
2023-03-07T03:13:10.948Z,51.72
2023-03-07T03:15:37.555Z,45.95
2023-03-07T03:18:04.234Z,47.85
2023-03-07T03:20:30.859Z,42.92
2023-03-07T03:22:57.471Z,52.70
2023-03-07T03:25:25.124Z,48.63
2023-03-07T03:27:51.776Z,45.70
2023-03-07T03:30:18.476Z,49.40
2023-03-07T03:32:45.077Z,52.72
2023-03-07T03:35:11.749Z,50.30
2023-03-07T03:37:38.481Z,46.83
2023-03-07T03:40:11.682Z,46.08
2023-03-07T03:42:38.268Z,42.43
2023-03-07T03:45:06.458Z,49.35
2023-03-07T03:47:33.334Z,44.97
2023-03-07T03:50:00.226Z,46.42
2023-03-07T03:52:26.830Z,40.55
2023-03-07T03:54:53.439Z,50.63
2023-03-07T03:57:20.640Z,46.00
2023-03-07T03:59:47.495Z,41.28
2023-03-07T04:02:14.271Z,47.25
2023-03-07T04:04:40.988Z,45.13
2023-03-07T04:07:07.608Z,48.45
2023-03-07T04:09:34.270Z,38.15
2023-03-07T04:12:00.900Z,39.67
2023-03-07T04:14:27.539Z,41.33
2023-03-07T04:16:54.437Z,37.22
2023-03-07T04:19:22.081Z,38.13
2023-03-07T04:21:48.762Z,39.72
2023-03-07T04:24:15.413Z,35.88
2023-03-07T04:26:42.050Z,35.13
2023-03-07T04:29:09.579Z,36.50
2023-03-07T04:31:36.234Z,36.65
2023-03-07T04:34:02.845Z,37.33
2023-03-07T04:36:29.730Z,37.97
2023-03-07T04:38:56.350Z,36.25
2023-03-07T04:41:26.015Z,32.45
2023-03-07T04:43:52.668Z,33.60
2023-03-07T04:46:19.391Z,35.60
2023-03-07T04:48:46.296Z,33.08
2023-03-07T04:51:13.102Z,39.15
2023-03-07T04:53:39.723Z,31.77
2023-03-07T04:56:06.927Z,30.40
2023-03-07T04:58:33.782Z,33.40
2023-03-07T05:01:01.090Z,30.48
2023-03-07T05:03:27.827Z,33.78
2023-03-07T05:05:54.457Z,33.42
2023-03-07T05:08:21.877Z,32.40
2023-03-07T05:10:49.491Z,27.90
2023-03-07T05:13:16.124Z,33.65
2023-03-07T05:15:42.877Z,27.17
2023-03-07T05:18:09.772Z,28.13
2023-03-07T05:20:36.405Z,28.55
2023-03-07T05:23:03.010Z,23.63
2023-03-07T05:25:29.615Z,26.23
2023-03-07T05:27:56.205Z,23.10
2023-03-07T05:30:22.911Z,23.30
2023-03-07T05:32:51.267Z,22.08
2023-03-07T05:35:17.922Z,21.58
2023-03-07T05:37:44.545Z,24.02
2023-03-07T05:40:14.251Z,23.27
2023-03-07T05:42:40.874Z,20.67
2023-03-07T05:45:08.012Z,23.77
2023-03-07T05:47:34.689Z,20.20
2023-03-07T05:50:01.321Z,24.35
2023-03-07T05:52:28.780Z,21.05
2023-03-07T05:54:55.634Z,23.13
2023-03-07T05:57:22.706Z,21.13
2023-03-07T05:59:49.341Z,20.95
2023-03-07T06:02:16.113Z,20.42
2023-03-07T06:04:42.726Z,22.65
2023-03-07T06:07:09.383Z,24.20
2023-03-07T06:09:36.000Z,22.95
2023-03-07T06:12:02.635Z,19.33
2023-03-07T06:14:31.078Z,25.48
2023-03-07T06:16:57.746Z,22.27
2023-03-07T06:19:24.596Z,23.05
2023-03-07T06:21:51.276Z,22.33
2023-03-07T06:24:18.148Z,24.38
2023-03-07T06:26:45.054Z,19.55
2023-03-07T06:29:11.662Z,22.58
2023-03-07T06:31:38.310Z,22.50
2023-03-07T06:34:04.947Z,21.65
2023-03-07T06:36:31.584Z,20.95
2023-03-07T06:38:58.261Z,21.33
2023-03-07T06:41:25.276Z,24.65
2023-03-07T06:43:52.747Z,21.40
2023-03-07T06:46:20.537Z,21.08
2023-03-07T06:48:47.438Z,20.23
2023-03-07T06:51:14.082Z,21.33
2023-03-07T06:53:41.118Z,19.35
2023-03-07T06:56:08.010Z,21.55
2023-03-07T06:58:34.873Z,21.88
2023-03-07T07:01:01.493Z,23.88
2023-03-07T07:03:28.129Z,23.30
2023-03-07T07:05:54.778Z,20.27
2023-03-07T07:08:21.423Z,23.15
2023-03-07T07:10:48.300Z,23.27
2023-03-07T07:13:15.056Z,24.50
2023-03-07T07:15:41.731Z,22.98
2023-03-07T07:18:10.464Z,23.52
2023-03-07T07:20:38.070Z,19.20
2023-03-07T07:23:04.960Z,24.52
2023-03-07T07:25:31.589Z,21.77
2023-03-07T07:27:58.239Z,19.40
2023-03-07T07:30:24.930Z,20.45
2023-03-07T07:32:51.689Z,22.95
2023-03-07T07:35:18.413Z,24.60
2023-03-07T07:37:45.141Z,23.70
2023-03-07T07:40:12.384Z,22.38
2023-03-07T07:42:39.027Z,24.23
2023-03-07T07:45:06.560Z,25.02
2023-03-07T07:47:33.239Z,24.05
2023-03-07T07:49:59.902Z,24.42
2023-03-07T07:52:26.550Z,22.77
2023-03-07T07:54:53.152Z,25.58
2023-03-07T07:57:22.267Z,24.58
2023-03-07T07:59:49.553Z,24.25
2023-03-07T08:02:16.185Z,27.20
2023-03-07T08:04:43.068Z,24.92
2023-03-07T08:07:09.764Z,24.02
2023-03-07T08:09:36.546Z,26.20
2023-03-07T08:12:03.306Z,27.05
2023-03-07T08:14:29.960Z,23.63
2023-03-07T08:16:56.672Z,26.13
2023-03-07T08:19:23.568Z,25.33
2023-03-07T08:21:50.437Z,23.77
2023-03-07T08:24:17.070Z,25.75
2023-03-07T08:26:43.723Z,28.10
2023-03-07T08:29:10.388Z,28.65
2023-03-07T08:31:37.008Z,28.25
2023-03-07T08:34:03.875Z,25.88
2023-03-07T08:36:30.718Z,28.67
2023-03-07T08:38:57.586Z,28.23
2023-03-07T08:41:24.260Z,28.98
2023-03-07T08:43:50.871Z,25.10
2023-03-07T08:46:17.584Z,25.35
2023-03-07T08:48:44.203Z,26.50
2023-03-07T08:51:12.634Z,29.08
2023-03-07T08:53:39.243Z,27.48
2023-03-07T08:56:07.268Z,30.48
2023-03-07T08:58:33.875Z,27.08
2023-03-07T09:01:00.565Z,25.08
2023-03-07T09:03:27.219Z,25.27
2023-03-07T09:05:54.069Z,26.80
2023-03-07T09:08:20.968Z,27.48
2023-03-07T09:10:47.594Z,24.80
2023-03-07T09:13:14.205Z,23.42
2023-03-07T09:15:41.418Z,28.83
2023-03-07T09:18:08.683Z,26.85
2023-03-07T09:20:35.417Z,24.60
2023-03-07T09:23:02.043Z,28.75
2023-03-07T09:25:28.672Z,25.80
2023-03-07T09:27:55.351Z,24.63
2023-03-07T09:30:23.035Z,24.52
2023-03-07T09:32:50.297Z,21.48
2023-03-07T09:35:17.289Z,24.13
2023-03-07T09:37:44.157Z,22.70
2023-03-07T09:40:19.437Z,20.58
2023-03-07T09:42:45.979Z,20.05
2023-03-07T09:45:34.344Z,19.75
2023-03-07T09:48:38.703Z,22.23
2023-03-07T09:51:46.881Z,20.63
2023-03-07T09:54:20.731Z,18.77
2023-03-07T09:56:48.289Z,19.58
2023-03-07T09:59:23.816Z,21.40
2023-03-07T10:02:36.431Z,21.15
2023-03-07T10:05:12.393Z,18.42
2023-03-07T10:07:39.139Z,17.05
2023-03-07T10:10:11.092Z,17.02
2023-03-07T10:12:51.958Z,16.00
2023-03-07T10:15:34.543Z,15.52
2023-03-07T10:18:26.174Z,15.82
2023-03-07T10:20:58.283Z,16.20
2023-03-07T10:23:48.261Z,15.88
2023-03-07T10:26:32.765Z,16.67
2023-03-07T10:29:00.000Z,15.50
2023-03-07T10:31:34.555Z,15.20
2023-03-07T10:34:01.194Z,14.90
2023-03-07T10:36:36.759Z,13.55
2023-03-07T10:39:18.419Z,16.50
2023-03-07T10:41:45.009Z,13.70
2023-03-07T10:44:14.859Z,13.80
2023-03-07T10:46:53.730Z,14.52
2023-03-07T10:49:34.673Z,19.35
2023-03-07T10:52:26.327Z,13.77
2023-03-07T10:54:52.922Z,12.52
2023-03-07T10:57:19.753Z,16.55
2023-03-07T10:59:50.614Z,14.68
2023-03-07T11:02:37.840Z,13.00
2023-03-07T11:05:24.314Z,10.98
2023-03-07T11:07:50.960Z,14.27
2023-03-07T11:10:36.217Z,12.02
2023-03-07T11:13:20.071Z,11.63
2023-03-07T11:15:46.846Z,16.65
2023-03-07T11:18:26.811Z,14.20
2023-03-07T11:20:53.451Z,13.90
2023-03-07T11:23:24.043Z,15.45
2023-03-07T11:25:51.528Z,15.27
2023-03-07T11:28:27.111Z,12.07
2023-03-07T11:30:58.790Z,11.32
2023-03-07T11:33:49.458Z,11.85
2023-03-07T11:36:36.742Z,10.98
2023-03-07T11:39:40.333Z,11.45
2023-03-07T11:42:16.679Z,9.48
2023-03-07T11:44:53.066Z,9.40
2023-03-07T11:47:38.347Z,13.68
2023-03-07T11:50:14.969Z,13.05
2023-03-07T11:52:50.584Z,4.25
2023-03-07T11:55:43.593Z,1.60
2023-03-07T11:58:32.070Z,0.85
2023-03-07T12:01:36.152Z,1.27
2023-03-07T12:04:27.812Z,1.85
2023-03-07T12:07:01.813Z,0.70
2023-03-07T12:09:45.093Z,0.60
2023-03-07T12:12:36.376Z,1.38
2023-03-07T12:15:06.299Z,0.80
2023-03-07T12:18:06.728Z,2.25
2023-03-07T12:20:54.792Z,3.65
2023-03-07T12:23:27.838Z,2.60
2023-03-07T12:25:56.170Z,0.60
2023-03-07T12:28:27.137Z,1.60
2023-03-07T12:31:10.756Z,1.33
2023-03-07T12:33:59.187Z,2.15
2023-03-07T12:36:36.454Z,5.28
2023-03-07T12:39:40.371Z,2.47
2023-03-07T12:42:44.302Z,4.88
2023-03-07T12:45:18.116Z,6.10
2023-03-07T12:47:54.961Z,2.70
2023-03-07T12:50:38.849Z,9.35
2023-03-07T12:53:25.384Z,4.90
2023-03-07T12:55:55.794Z,5.05
2023-03-07T12:58:43.274Z,3.85
2023-03-07T13:01:17.615Z,4.68
2023-03-07T13:03:46.735Z,9.18
2023-03-07T13:06:16.667Z,11.82
2023-03-07T13:08:46.011Z,14.45
2023-03-07T13:11:23.502Z,25.73
2023-03-07T13:13:58.292Z,21.83
2023-03-07T13:16:45.043Z,18.85
2023-03-07T13:19:50.561Z,10.07
2023-03-07T13:22:17.097Z,8.82
2023-03-07T13:24:44.293Z,5.95
2023-03-07T13:27:27.719Z,6.43
2023-03-07T13:30:12.777Z,13.43
2023-03-07T13:32:51.298Z,5.28
2023-03-07T13:35:39.211Z,15.25
2023-03-07T13:38:23.690Z,4.75
2023-03-07T13:40:54.448Z,5.78
2023-03-07T13:43:26.386Z,6.85
2023-03-07T13:46:00.902Z,5.90
2023-03-07T13:48:30.500Z,6.47
2023-03-07T13:51:02.892Z,3.92
2023-03-07T13:53:50.707Z,9.15
2023-03-07T13:56:17.569Z,11.57
2023-03-07T13:59:17.621Z,6.45
2023-03-07T14:01:52.982Z,5.18
2023-03-07T14:04:42.044Z,15.15
2023-03-07T14:07:21.779Z,19.75
2023-03-07T14:09:56.467Z,18.60
2023-03-07T14:12:36.009Z,9.65
2023-03-07T14:15:23.888Z,5.95
2023-03-07T14:18:11.175Z,11.88
2023-03-07T14:20:49.606Z,6.22
2023-03-07T14:23:21.139Z,6.32
2023-03-07T14:25:52.567Z,8.25
2023-03-07T14:28:21.624Z,7.40
2023-03-07T14:30:58.821Z,33.03
2023-03-07T14:33:35.918Z,3.28
2023-03-07T14:36:19.617Z,1.95
2023-03-07T14:38:46.374Z,2.50
2023-03-07T14:41:39.133Z,2.17
2023-03-07T14:44:43.924Z,4.47
2023-03-07T14:47:47.555Z,7.15
2023-03-07T14:50:20.148Z,1.20
2023-03-07T14:52:46.771Z,1.35
2023-03-07T14:55:21.136Z,4.07
2023-03-07T14:57:49.745Z,2.72
2023-03-07T15:00:28.192Z,0.75
2023-03-07T15:03:07.974Z,1.33
2023-03-07T15:05:48.460Z,1.83
2023-03-07T15:08:38.471Z,2.30
2023-03-07T15:11:06.533Z,1.80
2023-03-07T15:13:42.488Z,2.22
2023-03-07T15:16:12.735Z,2.30
2023-03-07T15:18:45.549Z,3.70
2023-03-07T15:21:18.024Z,4.40
2023-03-07T15:23:50.850Z,4.13
2023-03-07T15:26:21.179Z,6.68
2023-03-07T15:28:47.834Z,1.80
2023-03-07T15:31:15.599Z,3.83
2023-03-07T15:33:42.281Z,2.92
2023-03-07T15:36:19.569Z,1.60
2023-03-07T15:38:50.414Z,4.53
2023-03-07T15:41:31.673Z,4.60
2023-03-07T15:44:19.477Z,4.93
2023-03-07T15:46:53.652Z,5.28
2023-03-07T15:51:59.239Z,1.55
2023-03-07T15:54:29.410Z,2.22
2023-03-07T15:56:56.785Z,2.40
2023-03-07T15:59:37.400Z,2.35
2023-03-07T16:02:32.258Z,3.08
2023-03-07T16:05:00.197Z,6.82
2023-03-07T16:07:27.084Z,10.73
2023-03-07T16:09:53.783Z,5.72
2023-03-07T16:12:22.313Z,6.65
2023-03-07T16:14:49.946Z,2.00
2023-03-07T16:17:30.578Z,1.73
2023-03-07T16:19:57.645Z,4.65
2023-03-07T16:22:24.307Z,1.73
2023-03-07T16:24:50.974Z,4.97
2023-03-07T16:27:21.808Z,1.60
2023-03-07T16:29:48.607Z,3.13
2023-03-07T16:32:20.528Z,3.55
2023-03-07T16:34:48.673Z,1.83
2023-03-07T16:37:15.357Z,2.80
2023-03-07T16:39:42.289Z,4.28
2023-03-07T16:42:18.857Z,2.30
2023-03-07T16:44:45.531Z,3.83
2023-03-07T16:47:16.488Z,1.95
2023-03-07T16:49:43.551Z,3.67
2023-03-07T16:52:13.650Z,3.08
2023-03-07T16:54:40.334Z,3.47
2023-03-07T16:57:09.615Z,2.72
2023-03-07T16:59:37.090Z,3.30
2023-03-07T17:02:17.601Z,3.42
2023-03-07T17:04:44.650Z,3.40
2023-03-07T17:07:18.922Z,2.75
2023-03-07T17:09:45.722Z,2.72
2023-03-07T17:12:12.568Z,3.25
2023-03-07T17:14:39.283Z,5.45
2023-03-07T17:17:05.897Z,4.07
2023-03-07T17:19:32.782Z,3.03
2023-03-07T17:22:00.851Z,2.78
2023-03-07T17:24:28.926Z,3.65
2023-03-07T17:26:56.317Z,6.85
2023-03-07T17:29:30.991Z,10.50
2023-03-07T17:31:57.860Z,6.70
2023-03-07T17:34:28.988Z,4.72
2023-03-07T17:36:56.126Z,6.22
2023-03-07T17:39:22.851Z,3.47
2023-03-07T17:41:49.511Z,5.80
2023-03-07T17:44:18.005Z,4.32
2023-03-07T17:46:44.795Z,4.28
2023-03-07T17:49:11.429Z,4.30
2023-03-07T17:51:38.005Z,6.97
2023-03-07T17:54:06.591Z,7.07
2023-03-07T17:56:33.218Z,15.05
2023-03-07T17:59:02.568Z,8.48
2023-03-07T18:01:29.571Z,5.07
2023-03-07T18:03:56.713Z,11.73
2023-03-07T18:06:23.311Z,10.73
2023-03-07T18:08:50.082Z,13.70
2023-03-07T18:11:16.747Z,13.20
2023-03-07T18:13:43.407Z,17.15
2023-03-07T18:16:10.387Z,26.83
2023-03-07T18:18:40.175Z,28.95
2023-03-07T18:21:14.842Z,30.23
2023-03-07T18:23:41.437Z,26.77
2023-03-07T18:26:09.958Z,22.20
2023-03-07T18:28:37.753Z,23.30
2023-03-07T18:31:09.757Z,21.45
2023-03-07T18:33:36.675Z,27.70
2023-03-07T18:36:03.873Z,22.45
2023-03-07T18:38:30.549Z,24.17
2023-03-07T18:41:07.172Z,21.38
2023-03-07T18:43:33.860Z,22.95
2023-03-07T18:46:00.993Z,25.75
2023-03-07T18:48:27.683Z,23.63
2023-03-07T18:51:03.070Z,23.60
2023-03-07T18:53:29.838Z,23.45
2023-03-07T18:55:56.502Z,24.23
2023-03-07T18:58:23.170Z,26.33
2023-03-07T19:00:49.863Z,41.10
2023-03-07T19:03:16.595Z,42.63
2023-03-07T19:05:44.502Z,31.70
2023-03-07T19:08:11.413Z,27.30
2023-03-07T19:10:38.432Z,41.88
2023-03-07T19:13:05.613Z,32.35
2023-03-07T19:15:32.671Z,38.03
2023-03-07T19:17:59.537Z,42.67
2023-03-07T19:20:27.274Z,41.33
2023-03-07T19:22:53.974Z,37.35
2023-03-07T19:25:20.961Z,36.55
2023-03-07T19:27:47.567Z,34.58
2023-03-07T19:30:15.636Z,32.70
2023-03-07T19:32:42.318Z,31.63
2023-03-07T19:35:09.007Z,34.08
2023-03-07T19:37:36.460Z,37.63
2023-03-07T19:40:03.469Z,33.42
2023-03-07T19:42:30.361Z,31.50
2023-03-07T19:44:56.989Z,32.33
2023-03-07T19:47:24.040Z,32.58
2023-03-07T19:49:50.747Z,33.42
2023-03-07T19:52:17.424Z,30.65
2023-03-07T19:54:45.418Z,39.42
2023-03-07T19:57:14.803Z,37.50
2023-03-07T19:59:41.445Z,38.15
2023-03-07T20:02:10.206Z,37.15
2023-03-07T20:04:36.802Z,34.58
2023-03-07T20:07:03.503Z,30.83
2023-03-07T20:09:30.138Z,34.50
2023-03-07T20:11:56.739Z,32.92
2023-03-07T20:14:23.609Z,35.45
2023-03-07T20:16:50.514Z,50.30
2023-03-07T20:19:18.227Z,39.60
2023-03-07T20:21:49.796Z,36.72
2023-03-07T20:24:18.170Z,35.38
2023-03-07T20:26:44.973Z,26.88
2023-03-07T20:29:11.689Z,23.83
2023-03-07T20:31:39.271Z,26.75
2023-03-07T20:34:06.060Z,21.10
2023-03-07T20:36:33.961Z,15.77
2023-03-07T20:39:02.097Z,23.38
2023-03-07T20:41:30.641Z,22.38
2023-03-07T20:43:58.861Z,11.98
2023-03-07T20:46:25.536Z,7.68
2023-03-07T20:48:54.393Z,7.68
2023-03-07T20:51:23.221Z,8.00
2023-03-07T20:53:51.222Z,7.40
2023-03-07T20:56:18.011Z,6.57
2023-03-07T20:58:44.724Z,5.60
2023-03-07T21:01:11.722Z,14.80
2023-03-07T21:03:38.494Z,7.07
2023-03-07T21:06:05.400Z,7.00
2023-03-07T21:08:33.533Z,8.10
2023-03-07T21:11:04.361Z,6.07
2023-03-07T21:13:31.254Z,8.98
2023-03-07T21:15:59.291Z,5.18
2023-03-07T21:18:26.236Z,7.13
2023-03-07T21:20:52.904Z,5.25
2023-03-07T21:23:19.534Z,4.80
2023-03-07T21:25:46.621Z,6.63
2023-03-07T21:28:13.398Z,3.17
2023-03-07T21:30:40.006Z,3.97
2023-03-07T21:33:06.770Z,3.75
2023-03-07T21:35:38.142Z,4.72
2023-03-07T21:38:04.844Z,3.55
2023-03-07T21:40:31.504Z,3.10
2023-03-07T21:42:58.282Z,3.90
2023-03-07T21:45:25.756Z,3.65
2023-03-07T21:47:54.190Z,2.70
2023-03-07T21:50:20.924Z,3.88
2023-03-07T21:52:47.635Z,4.13
2023-03-07T21:55:14.260Z,3.92
2023-03-07T21:57:41.096Z,7.00
2023-03-07T22:00:09.092Z,8.82
2023-03-07T22:02:38.819Z,6.70
2023-03-07T22:05:05.740Z,6.32
2023-03-07T22:07:32.345Z,7.80
2023-03-07T22:09:58.939Z,5.18
2023-03-07T22:12:25.870Z,6.63
2023-03-07T22:14:52.793Z,6.68
2023-03-07T22:17:19.436Z,6.55
2023-03-07T22:19:46.044Z,8.02
2023-03-07T22:22:12.674Z,9.30
2023-03-07T22:24:39.341Z,8.52
2023-03-07T22:27:07.375Z,9.90
2023-03-07T22:29:33.963Z,6.43
2023-03-07T22:32:00.644Z,5.78
2023-03-07T22:34:27.322Z,5.80
2023-03-07T22:36:56.440Z,6.35
2023-03-07T22:39:23.927Z,5.35
2023-03-07T22:41:50.820Z,6.88
2023-03-07T22:44:19.450Z,7.85
2023-03-07T22:46:46.719Z,6.18
2023-03-07T22:49:13.413Z,6.50
2023-03-07T22:51:40.297Z,7.00
2023-03-07T22:54:07.522Z,7.65
2023-03-07T22:56:34.167Z,6.60
2023-03-07T22:59:04.657Z,7.47
2023-03-07T23:01:31.328Z,7.72
2023-03-07T23:03:58.678Z,9.57
2023-03-07T23:06:27.683Z,7.00
2023-03-07T23:08:54.317Z,8.15
2023-03-07T23:11:21.934Z,8.48
2023-03-07T23:13:48.584Z,8.60
2023-03-07T23:16:16.676Z,8.20
2023-03-07T23:18:43.736Z,9.50
2023-03-07T23:21:11.836Z,11.55
2023-03-07T23:23:38.520Z,8.60
2023-03-07T23:26:05.477Z,8.80
2023-03-07T23:28:32.083Z,10.30
2023-03-07T23:30:58.721Z,8.65
2023-03-07T23:33:25.337Z,8.95
2023-03-07T23:35:52.006Z,12.25
2023-03-07T23:38:18.619Z,8.00
2023-03-07T23:40:45.231Z,9.57
2023-03-07T23:43:12.731Z,8.63
2023-03-07T23:45:39.433Z,10.98
2023-03-07T23:48:06.176Z,8.30
2023-03-07T23:50:32.777Z,10.32
2023-03-07T23:52:59.399Z,13.73
2023-03-07T23:55:26.001Z,11.68
2023-03-07T23:57:52.641Z,12.38
